sensor_id;sensor_type;location;lat;lon;timestamp;P1;durP1;ratioP1;P2;durP2;ratioP2
72929;SDS011;61073;54.260;20.816;2023-09-19T00:00:57;10.18;;;8.25;;
72929;SDS011;61073;54.260;20.816;2023-09-19T00:03:25;11.63;;;8.70;;
72929;SDS011;61073;54.260;20.816;2023-09-19T00:05:54;12.50;;;8.63;;
72929;SDS011;61073;54.260;20.816;2023-09-19T00:08:21;9.73;;;7.95;;
72929;SDS011;61073;54.260;20.816;2023-09-19T00:10:48;11.13;;;8.77;;
72929;SDS011;61073;54.260;20.816;2023-09-19T00:13:15;16.10;;;8.65;;
72929;SDS011;61073;54.260;20.816;2023-09-19T00:15:43;12.00;;;8.60;;
72929;SDS011;61073;54.260;20.816;2023-09-19T00:18:17;12.35;;;8.35;;
72929;SDS011;61073;54.260;20.816;2023-09-19T00:20:47;11.90;;;9.15;;
72929;SDS011;61073;54.260;20.816;2023-09-19T00:23:15;13.35;;;9.02;;
72929;SDS011;61073;54.260;20.816;2023-09-19T00:25:42;14.13;;;9.02;;
72929;SDS011;61073;54.260;20.816;2023-09-19T00:28:11;13.20;;;8.57;;
72929;SDS011;61073;54.260;20.816;2023-09-19T00:30:38;13.63;;;9.50;;
72929;SDS011;61073;54.260;20.816;2023-09-19T00:33:06;14.57;;;9.50;;
72929;SDS011;61073;54.260;20.816;2023-09-19T00:35:33;14.02;;;9.00;;
72929;SDS011;61073;54.260;20.816;2023-09-19T00:38:01;12.68;;;9.35;;
72929;SDS011;61073;54.260;20.816;2023-09-19T00:40:29;13.85;;;9.02;;
72929;SDS011;61073;54.260;20.816;2023-09-19T00:42:57;13.43;;;9.07;;
72929;SDS011;61073;54.260;20.816;2023-09-19T00:45:27;14.82;;;9.70;;
72929;SDS011;61073;54.260;20.816;2023-09-19T00:47:55;14.18;;;9.43;;
72929;SDS011;61073;54.260;20.816;2023-09-19T00:50:24;14.43;;;9.45;;
72929;SDS011;61073;54.260;20.816;2023-09-19T00:52:53;16.67;;;9.15;;
72929;SDS011;61073;54.260;20.816;2023-09-19T00:55:23;13.02;;;9.57;;
72929;SDS011;61073;54.260;20.816;2023-09-19T00:57:51;12.57;;;9.73;;
72929;SDS011;61073;54.260;20.816;2023-09-19T01:00:18;15.75;;;9.60;;
72929;SDS011;61073;54.260;20.816;2023-09-19T01:02:46;15.57;;;10.15;;
72929;SDS011;61073;54.260;20.816;2023-09-19T01:05:13;15.23;;;9.82;;
72929;SDS011;61073;54.260;20.816;2023-09-19T01:07:41;15.73;;;9.40;;
72929;SDS011;61073;54.260;20.816;2023-09-19T01:10:09;13.05;;;10.18;;
72929;SDS011;61073;54.260;20.816;2023-09-19T01:20:58;16.05;;;10.23;;
72929;SDS011;61073;54.260;20.816;2023-09-19T01:23:39;16.98;;;10.40;;
72929;SDS011;61073;54.260;20.816;2023-09-19T01:26:55;14.07;;;9.77;;
72929;SDS011;61073;54.260;20.816;2023-09-19T01:29:01;19.13;;;10.70;;
72929;SDS011;61073;54.260;20.816;2023-09-19T01:31:34;15.73;;;9.52;;
72929;SDS011;61073;54.260;20.816;2023-09-19T01:34:04;15.93;;;10.02;;
72929;SDS011;61073;54.260;20.816;2023-09-19T01:36:33;15.20;;;10.32;;
72929;SDS011;61073;54.260;20.816;2023-09-19T01:39:05;15.95;;;9.80;;
72929;SDS011;61073;54.260;20.816;2023-09-19T01:44:03;17.55;;;11.02;;
72929;SDS011;61073;54.260;20.816;2023-09-19T01:46:35;20.45;;;10.52;;
72929;SDS011;61073;54.260;20.816;2023-09-19T01:51:43;16.00;;;10.10;;
72929;SDS011;61073;54.260;20.816;2023-09-19T01:54:12;16.08;;;10.50;;
72929;SDS011;61073;54.260;20.816;2023-09-19T01:56:50;16.23;;;10.60;;
72929;SDS011;61073;54.260;20.816;2023-09-19T01:59:20;14.73;;;10.20;;
72929;SDS011;61073;54.260;20.816;2023-09-19T02:01:48;14.55;;;9.90;;
72929;SDS011;61073;54.260;20.816;2023-09-19T02:04:16;14.32;;;10.10;;
72929;SDS011;61073;54.260;20.816;2023-09-19T02:06:44;13.20;;;10.30;;
72929;SDS011;61073;54.260;20.816;2023-09-19T02:09:14;13.63;;;9.80;;
72929;SDS011;61073;54.260;20.816;2023-09-19T02:11:41;17.02;;;9.65;;
72929;SDS011;61073;54.260;20.816;2023-09-19T02:14:08;15.77;;;10.70;;
72929;SDS011;61073;54.260;20.816;2023-09-19T02:16:35;17.23;;;9.73;;
72929;SDS011;61073;54.260;20.816;2023-09-19T02:19:03;13.43;;;9.38;;
72929;SDS011;61073;54.260;20.816;2023-09-19T02:21:31;14.98;;;10.45;;
72929;SDS011;61073;54.260;20.816;2023-09-19T02:24:00;14.63;;;10.43;;
72929;SDS011;61073;54.260;20.816;2023-09-19T02:26:27;13.55;;;10.15;;
72929;SDS011;61073;54.260;20.816;2023-09-19T02:28:54;13.50;;;10.25;;
72929;SDS011;61073;54.260;20.816;2023-09-19T02:31:21;17.65;;;10.05;;
72929;SDS011;61073;54.260;20.816;2023-09-19T02:33:48;14.95;;;9.93;;
72929;SDS011;61073;54.260;20.816;2023-09-19T02:36:15;15.00;;;10.10;;
72929;SDS011;61073;54.260;20.816;2023-09-19T02:38:43;18.92;;;9.75;;
72929;SDS011;61073;54.260;20.816;2023-09-19T02:41:10;12.90;;;9.43;;
72929;SDS011;61073;54.260;20.816;2023-09-19T02:43:37;17.85;;;9.60;;
72929;SDS011;61073;54.260;20.816;2023-09-19T02:46:05;13.35;;;10.15;;
72929;SDS011;61073;54.260;20.816;2023-09-19T02:48:32;15.18;;;9.88;;
72929;SDS011;61073;54.260;20.816;2023-09-19T02:51:01;16.02;;;9.23;;
72929;SDS011;61073;54.260;20.816;2023-09-19T02:53:31;15.23;;;10.43;;
72929;SDS011;61073;54.260;20.816;2023-09-19T02:55:58;15.63;;;9.70;;
72929;SDS011;61073;54.260;20.816;2023-09-19T02:58:25;12.63;;;9.48;;
72929;SDS011;61073;54.260;20.816;2023-09-19T03:00:53;14.43;;;9.82;;
72929;SDS011;61073;54.260;20.816;2023-09-19T03:03:21;14.90;;;10.48;;
72929;SDS011;61073;54.260;20.816;2023-09-19T03:05:49;14.80;;;10.10;;
72929;SDS011;61073;54.260;20.816;2023-09-19T03:08:19;17.60;;;9.63;;
72929;SDS011;61073;54.260;20.816;2023-09-19T03:10:46;13.45;;;9.93;;
72929;SDS011;61073;54.260;20.816;2023-09-19T03:13:14;16.67;;;10.25;;
72929;SDS011;61073;54.260;20.816;2023-09-19T03:15:42;17.75;;;10.73;;
72929;SDS011;61073;54.260;20.816;2023-09-19T03:18:12;13.27;;;9.93;;
72929;SDS011;61073;54.260;20.816;2023-09-19T03:20:39;13.35;;;10.10;;
72929;SDS011;61073;54.260;20.816;2023-09-19T03:23:06;14.35;;;9.30;;
72929;SDS011;61073;54.260;20.816;2023-09-19T03:25:34;13.10;;;9.82;;
72929;SDS011;61073;54.260;20.816;2023-09-19T03:28:02;14.98;;;9.82;;
72929;SDS011;61073;54.260;20.816;2023-09-19T03:30:31;15.10;;;9.65;;
72929;SDS011;61073;54.260;20.816;2023-09-19T03:32:59;14.15;;;9.70;;
72929;SDS011;61073;54.260;20.816;2023-09-19T03:35:26;19.35;;;10.50;;
72929;SDS011;61073;54.260;20.816;2023-09-19T03:37:53;18.10;;;10.40;;
72929;SDS011;61073;54.260;20.816;2023-09-19T03:40:21;14.35;;;9.73;;
72929;SDS011;61073;54.260;20.816;2023-09-19T03:42:49;19.08;;;10.73;;
72929;SDS011;61073;54.260;20.816;2023-09-19T03:45:16;15.07;;;10.98;;
72929;SDS011;61073;54.260;20.816;2023-09-19T03:47:44;16.52;;;10.35;;
72929;SDS011;61073;54.260;20.816;2023-09-19T03:50:13;15.73;;;10.70;;
72929;SDS011;61073;54.260;20.816;2023-09-19T03:52:44;16.63;;;10.52;;
72929;SDS011;61073;54.260;20.816;2023-09-19T03:55:11;15.48;;;10.27;;
72929;SDS011;61073;54.260;20.816;2023-09-19T03:57:38;14.63;;;10.15;;
72929;SDS011;61073;54.260;20.816;2023-09-19T04:00:05;15.85;;;10.63;;
72929;SDS011;61073;54.260;20.816;2023-09-19T04:02:38;15.52;;;10.13;;
72929;SDS011;61073;54.260;20.816;2023-09-19T04:05:05;15.68;;;10.40;;
72929;SDS011;61073;54.260;20.816;2023-09-19T04:07:33;15.48;;;10.13;;
72929;SDS011;61073;54.260;20.816;2023-09-19T04:10:00;17.35;;;9.73;;
72929;SDS011;61073;54.260;20.816;2023-09-19T04:12:27;15.07;;;10.52;;
72929;SDS011;61073;54.260;20.816;2023-09-19T04:14:54;18.33;;;9.98;;
72929;SDS011;61073;54.260;20.816;2023-09-19T04:17:21;19.05;;;10.27;;
72929;SDS011;61073;54.260;20.816;2023-09-19T04:19:49;18.33;;;10.18;;
72929;SDS011;61073;54.260;20.816;2023-09-19T04:22:16;14.27;;;9.85;;
72929;SDS011;61073;54.260;20.816;2023-09-19T04:24:43;18.65;;;10.52;;
72929;SDS011;61073;54.260;20.816;2023-09-19T04:27:11;18.05;;;10.00;;
72929;SDS011;61073;54.260;20.816;2023-09-19T04:29:41;13.80;;;10.10;;
72929;SDS011;61073;54.260;20.816;2023-09-19T04:32:08;13.65;;;10.40;;
72929;SDS011;61073;54.260;20.816;2023-09-19T04:34:35;13.63;;;11.00;;
72929;SDS011;61073;54.260;20.816;2023-09-19T04:37:04;17.90;;;10.93;;
72929;SDS011;61073;54.260;20.816;2023-09-19T04:39:32;18.27;;;11.15;;
72929;SDS011;61073;54.260;20.816;2023-09-19T04:42:00;14.18;;;10.70;;
72929;SDS011;61073;54.260;20.816;2023-09-19T04:44:27;26.15;;;10.60;;
72929;SDS011;61073;54.260;20.816;2023-09-19T04:46:55;23.33;;;10.77;;
72929;SDS011;61073;54.260;20.816;2023-09-19T04:49:22;15.98;;;11.35;;
72929;SDS011;61073;54.260;20.816;2023-09-19T04:51:49;22.20;;;10.57;;
72929;SDS011;61073;54.260;20.816;2023-09-19T04:54:16;19.95;;;10.98;;
72929;SDS011;61073;54.260;20.816;2023-09-19T04:56:44;16.45;;;10.15;;
72929;SDS011;61073;54.260;20.816;2023-09-19T04:59:11;21.73;;;11.00;;
72929;SDS011;61073;54.260;20.816;2023-09-19T05:01:38;36.42;;;11.45;;
72929;SDS011;61073;54.260;20.816;2023-09-19T05:04:05;16.50;;;11.65;;
72929;SDS011;61073;54.260;20.816;2023-09-19T05:06:32;19.17;;;11.30;;
72929;SDS011;61073;54.260;20.816;2023-09-19T05:09:02;23.20;;;10.85;;
72929;SDS011;61073;54.260;20.816;2023-09-19T05:11:31;19.10;;;9.50;;
72929;SDS011;61073;54.260;20.816;2023-09-19T05:13:59;32.80;;;11.02;;
72929;SDS011;61073;54.260;20.816;2023-09-19T05:16:30;29.33;;;11.45;;
72929;SDS011;61073;54.260;20.816;2023-09-19T05:19:00;24.08;;;10.98;;
72929;SDS011;61073;54.260;20.816;2023-09-19T05:21:27;7.72;;;5.53;;
72929;SDS011;61073;54.260;20.816;2023-09-19T05:23:55;8.55;;;6.95;;
72929;SDS011;61073;54.260;20.816;2023-09-19T05:26:22;14.32;;;10.30;;
72929;SDS011;61073;54.260;20.816;2023-09-19T05:28:49;17.70;;;8.82;;
72929;SDS011;61073;54.260;20.816;2023-09-19T05:31:17;14.50;;;8.88;;
72929;SDS011;61073;54.260;20.816;2023-09-19T05:33:44;15.20;;;9.52;;
72929;SDS011;61073;54.260;20.816;2023-09-19T05:36:11;15.40;;;9.50;;
72929;SDS011;61073;54.260;20.816;2023-09-19T05:38:38;14.18;;;8.35;;
72929;SDS011;61073;54.260;20.816;2023-09-19T05:41:07;15.35;;;9.27;;
72929;SDS011;61073;54.260;20.816;2023-09-19T05:43:35;17.33;;;11.68;;
72929;SDS011;61073;54.260;20.816;2023-09-19T05:46:03;28.52;;;10.82;;
72929;SDS011;61073;54.260;20.816;2023-09-19T05:48:30;31.88;;;10.10;;
72929;SDS011;61073;54.260;20.816;2023-09-19T05:50:57;20.08;;;9.27;;
72929;SDS011;61073;54.260;20.816;2023-09-19T05:53:24;45.50;;;10.65;;
72929;SDS011;61073;54.260;20.816;2023-09-19T05:55:51;21.13;;;9.88;;
72929;SDS011;61073;54.260;20.816;2023-09-19T05:58:19;23.88;;;10.45;;
72929;SDS011;61073;54.260;20.816;2023-09-19T06:00:47;18.42;;;8.73;;
72929;SDS011;61073;54.260;20.816;2023-09-19T06:03:15;17.58;;;9.38;;
72929;SDS011;61073;54.260;20.816;2023-09-19T06:05:43;59.03;;;12.48;;
72929;SDS011;61073;54.260;20.816;2023-09-19T06:08:12;18.80;;;9.93;;
72929;SDS011;61073;54.260;20.816;2023-09-19T06:10:39;24.35;;;10.68;;
72929;SDS011;61073;54.260;20.816;2023-09-19T06:13:06;99.95;;;14.27;;
72929;SDS011;61073;54.260;20.816;2023-09-19T06:15:35;22.63;;;10.05;;
72929;SDS011;61073;54.260;20.816;2023-09-19T06:18:03;36.25;;;9.55;;
72929;SDS011;61073;54.260;20.816;2023-09-19T06:20:30;68.38;;;13.25;;
72929;SDS011;61073;54.260;20.816;2023-09-19T06:23:00;24.50;;;10.32;;
72929;SDS011;61073;54.260;20.816;2023-09-19T06:25:28;27.70;;;11.00;;
72929;SDS011;61073;54.260;20.816;2023-09-19T06:27:55;16.27;;;8.75;;
72929;SDS011;61073;54.260;20.816;2023-09-19T06:30:23;21.67;;;9.45;;
72929;SDS011;61073;54.260;20.816;2023-09-19T06:32:57;21.85;;;10.10;;
72929;SDS011;61073;54.260;20.816;2023-09-19T06:35:25;15.40;;;9.52;;
72929;SDS011;61073;54.260;20.816;2023-09-19T06:37:52;22.20;;;9.68;;
72929;SDS011;61073;54.260;20.816;2023-09-19T06:40:19;24.27;;;10.13;;
72929;SDS011;61073;54.260;20.816;2023-09-19T06:42:47;20.13;;;9.57;;
72929;SDS011;61073;54.260;20.816;2023-09-19T06:45:16;19.95;;;10.85;;
72929;SDS011;61073;54.260;20.816;2023-09-19T06:47:45;19.60;;;9.88;;
72929;SDS011;61073;54.260;20.816;2023-09-19T06:50:16;16.13;;;10.23;;
72929;SDS011;61073;54.260;20.816;2023-09-19T06:52:45;21.13;;;10.07;;
72929;SDS011;61073;54.260;20.816;2023-09-19T06:55:16;65.05;;;13.65;;
72929;SDS011;61073;54.260;20.816;2023-09-19T06:57:45;14.63;;;9.82;;
72929;SDS011;61073;54.260;20.816;2023-09-19T07:00:13;16.52;;;10.32;;
72929;SDS011;61073;54.260;20.816;2023-09-19T07:02:55;18.02;;;10.70;;
72929;SDS011;61073;54.260;20.816;2023-09-19T07:05:22;14.50;;;10.10;;
72929;SDS011;61073;54.260;20.816;2023-09-19T07:07:49;22.63;;;10.20;;
72929;SDS011;61073;54.260;20.816;2023-09-19T07:10:16;18.30;;;10.10;;
72929;SDS011;61073;54.260;20.816;2023-09-19T07:12:44;15.55;;;10.00;;
72929;SDS011;61073;54.260;20.816;2023-09-19T07:15:11;15.35;;;9.82;;
72929;SDS011;61073;54.260;20.816;2023-09-19T07:17:38;14.57;;;11.27;;
72929;SDS011;61073;54.260;20.816;2023-09-19T07:20:05;20.17;;;11.57;;
72929;SDS011;61073;54.260;20.816;2023-09-19T07:22:34;15.25;;;11.18;;
72929;SDS011;61073;54.260;20.816;2023-09-19T07:25:02;19.02;;;11.77;;
72929;SDS011;61073;54.260;20.816;2023-09-19T07:27:29;16.33;;;11.25;;
72929;SDS011;61073;54.260;20.816;2023-09-19T07:29:56;29.50;;;12.80;;
72929;SDS011;61073;54.260;20.816;2023-09-19T07:32:24;16.15;;;11.98;;
72929;SDS011;61073;54.260;20.816;2023-09-19T07:34:51;19.77;;;11.93;;
72929;SDS011;61073;54.260;20.816;2023-09-19T07:37:20;16.30;;;11.80;;
72929;SDS011;61073;54.260;20.816;2023-09-19T07:39:47;19.17;;;11.52;;
72929;SDS011;61073;54.260;20.816;2023-09-19T07:42:15;19.92;;;12.93;;
72929;SDS011;61073;54.260;20.816;2023-09-19T07:44:44;21.58;;;12.98;;
72929;SDS011;61073;54.260;20.816;2023-09-19T07:47:16;26.73;;;14.32;;
72929;SDS011;61073;54.260;20.816;2023-09-19T07:49:46;21.55;;;13.52;;
72929;SDS011;61073;54.260;20.816;2023-09-19T07:52:13;17.20;;;12.95;;
72929;SDS011;61073;54.260;20.816;2023-09-19T07:54:41;18.73;;;13.95;;
72929;SDS011;61073;54.260;20.816;2023-09-19T07:57:10;20.73;;;14.15;;
72929;SDS011;61073;54.260;20.816;2023-09-19T07:59:37;17.00;;;13.20;;
72929;SDS011;61073;54.260;20.816;2023-09-19T08:02:07;19.13;;;12.95;;
72929;SDS011;61073;54.260;20.816;2023-09-19T08:04:44;20.30;;;13.77;;
72929;SDS011;61073;54.260;20.816;2023-09-19T08:07:15;28.27;;;14.25;;
72929;SDS011;61073;54.260;20.816;2023-09-19T08:09:42;20.45;;;13.82;;
72929;SDS011;61073;54.260;20.816;2023-09-19T08:12:12;19.70;;;13.32;;
72929;SDS011;61073;54.260;20.816;2023-09-19T08:14:40;19.10;;;14.07;;
72929;SDS011;61073;54.260;20.816;2023-09-19T08:17:07;23.40;;;13.85;;
72929;SDS011;61073;54.260;20.816;2023-09-19T08:19:35;23.92;;;13.13;;
72929;SDS011;61073;54.260;20.816;2023-09-19T08:22:02;18.08;;;12.70;;
72929;SDS011;61073;54.260;20.816;2023-09-19T08:24:29;18.65;;;13.13;;
72929;SDS011;61073;54.260;20.816;2023-09-19T08:26:57;20.23;;;13.55;;
72929;SDS011;61073;54.260;20.816;2023-09-19T08:29:25;20.17;;;13.15;;
72929;SDS011;61073;54.260;20.816;2023-09-19T08:31:54;20.15;;;14.70;;
72929;SDS011;61073;54.260;20.816;2023-09-19T08:34:22;18.95;;;13.00;;
72929;SDS011;61073;54.260;20.816;2023-09-19T08:36:50;22.58;;;13.23;;
72929;SDS011;61073;54.260;20.816;2023-09-19T08:39:18;17.13;;;13.13;;
72929;SDS011;61073;54.260;20.816;2023-09-19T08:41:45;17.90;;;13.57;;
72929;SDS011;61073;54.260;20.816;2023-09-19T08:44:13;19.48;;;13.57;;
72929;SDS011;61073;54.260;20.816;2023-09-19T08:46:41;19.40;;;13.48;;
72929;SDS011;61073;54.260;20.816;2023-09-19T08:49:10;22.02;;;12.60;;
72929;SDS011;61073;54.260;20.816;2023-09-19T08:51:42;16.80;;;12.68;;
72929;SDS011;61073;54.260;20.816;2023-09-19T08:54:12;16.42;;;12.80;;
72929;SDS011;61073;54.260;20.816;2023-09-19T08:56:48;17.80;;;11.55;;
72929;SDS011;61073;54.260;20.816;2023-09-19T08:59:17;18.50;;;12.50;;
72929;SDS011;61073;54.260;20.816;2023-09-19T09:01:50;20.17;;;13.38;;
72929;SDS011;61073;54.260;20.816;2023-09-19T09:04:19;17.10;;;12.73;;
72929;SDS011;61073;54.260;20.816;2023-09-19T09:06:46;15.20;;;11.10;;
72929;SDS011;61073;54.260;20.816;2023-09-19T09:09:15;17.58;;;11.50;;
72929;SDS011;61073;54.260;20.816;2023-09-19T09:11:42;14.52;;;10.63;;
72929;SDS011;61073;54.260;20.816;2023-09-19T09:14:09;19.33;;;12.13;;
72929;SDS011;61073;54.260;20.816;2023-09-19T09:16:37;20.77;;;11.48;;
72929;SDS011;61073;54.260;20.816;2023-09-19T09:19:04;16.73;;;10.77;;
72929;SDS011;61073;54.260;20.816;2023-09-19T09:21:31;32.20;;;11.35;;
72929;SDS011;61073;54.260;20.816;2023-09-19T09:26:47;18.52;;;10.50;;
72929;SDS011;61073;54.260;20.816;2023-09-19T09:29:16;27.83;;;11.23;;
72929;SDS011;61073;54.260;20.816;2023-09-19T09:31:45;14.88;;;10.15;;
72929;SDS011;61073;54.260;20.816;2023-09-19T09:34:12;23.75;;;9.90;;
72929;SDS011;61073;54.260;20.816;2023-09-19T09:36:40;29.52;;;9.70;;
72929;SDS011;61073;54.260;20.816;2023-09-19T09:39:07;13.68;;;9.35;;
72929;SDS011;61073;54.260;20.816;2023-09-19T09:41:50;17.85;;;9.82;;
72929;SDS011;61073;54.260;20.816;2023-09-19T09:44:17;24.25;;;9.65;;
72929;SDS011;61073;54.260;20.816;2023-09-19T09:46:45;19.20;;;9.50;;
72929;SDS011;61073;54.260;20.816;2023-09-19T09:49:22;12.43;;;8.93;;
72929;SDS011;61073;54.260;20.816;2023-09-19T09:52:06;13.75;;;9.10;;
72929;SDS011;61073;54.260;20.816;2023-09-19T09:54:39;13.90;;;8.50;;
72929;SDS011;61073;54.260;20.816;2023-09-19T09:57:23;18.88;;;9.75;;
72929;SDS011;61073;54.260;20.816;2023-09-19T09:59:56;13.35;;;8.98;;
72929;SDS011;61073;54.260;20.816;2023-09-19T10:02:39;14.63;;;9.23;;
72929;SDS011;61073;54.260;20.816;2023-09-19T10:07:53;19.92;;;8.48;;
72929;SDS011;61073;54.260;20.816;2023-09-19T10:13:08;12.38;;;8.48;;
72929;SDS011;61073;54.260;20.816;2023-09-19T10:15:38;14.32;;;7.78;;
72929;SDS011;61073;54.260;20.816;2023-09-19T10:18:10;14.77;;;8.50;;
72929;SDS011;61073;54.260;20.816;2023-09-19T10:20:46;16.48;;;9.05;;
72929;SDS011;61073;54.260;20.816;2023-09-19T10:23:16;21.65;;;9.75;;
72929;SDS011;61073;54.260;20.816;2023-09-19T10:25:48;12.18;;;9.30;;
72929;SDS011;61073;54.260;20.816;2023-09-19T10:28:16;25.80;;;10.07;;
72929;SDS011;61073;54.260;20.816;2023-09-19T10:30:48;17.40;;;9.77;;
72929;SDS011;61073;54.260;20.816;2023-09-19T10:33:17;28.40;;;9.65;;
72929;SDS011;61073;54.260;20.816;2023-09-19T10:35:47;13.80;;;10.00;;
72929;SDS011;61073;54.260;20.816;2023-09-19T10:38:17;20.17;;;9.48;;
72929;SDS011;61073;54.260;20.816;2023-09-19T10:40:48;13.68;;;8.90;;
72929;SDS011;61073;54.260;20.816;2023-09-19T10:43:17;16.52;;;9.20;;
72929;SDS011;61073;54.260;20.816;2023-09-19T10:45:45;15.15;;;9.13;;
72929;SDS011;61073;54.260;20.816;2023-09-19T10:48:16;13.40;;;9.20;;
72929;SDS011;61073;54.260;20.816;2023-09-19T10:53:15;11.77;;;8.60;;
72929;SDS011;61073;54.260;20.816;2023-09-19T10:55:53;12.48;;;9.57;;
72929;SDS011;61073;54.260;20.816;2023-09-19T10:58:28;12.15;;;8.82;;
72929;SDS011;61073;54.260;20.816;2023-09-19T11:00:58;10.75;;;8.38;;
72929;SDS011;61073;54.260;20.816;2023-09-19T11:03:31;15.25;;;8.80;;
72929;SDS011;61073;54.260;20.816;2023-09-19T11:06:03;11.23;;;8.10;;
72929;SDS011;61073;54.260;20.816;2023-09-19T11:20:14;11.73;;;7.40;;
72929;SDS011;61073;54.260;20.816;2023-09-19T11:22:14;9.57;;;7.25;;
72929;SDS011;61073;54.260;20.816;2023-09-19T11:24:41;9.68;;;6.47;;
72929;SDS011;61073;54.260;20.816;2023-09-19T11:27:09;9.35;;;6.90;;
72929;SDS011;61073;54.260;20.816;2023-09-19T11:29:40;12.15;;;7.30;;
72929;SDS011;61073;54.260;20.816;2023-09-19T11:32:07;9.38;;;6.85;;
72929;SDS011;61073;54.260;20.816;2023-09-19T11:39:40;10.30;;;5.75;;
72929;SDS011;61073;54.260;20.816;2023-09-19T11:44:53;7.32;;;5.57;;
72929;SDS011;61073;54.260;20.816;2023-09-19T11:47:22;7.53;;;6.50;;
72929;SDS011;61073;54.260;20.816;2023-09-19T11:49:51;6.32;;;5.10;;
72929;SDS011;61073;54.260;20.816;2023-09-19T11:52:22;10.23;;;5.18;;
72929;SDS011;61073;54.260;20.816;2023-09-19T11:54:56;6.43;;;5.35;;
72929;SDS011;61073;54.260;20.816;2023-09-19T11:57:24;9.25;;;5.57;;
72929;SDS011;61073;54.260;20.816;2023-09-19T11:59:51;8.80;;;6.03;;
72929;SDS011;61073;54.260;20.816;2023-09-19T12:02:27;8.13;;;4.53;;
72929;SDS011;61073;54.260;20.816;2023-09-19T12:05:00;9.07;;;5.07;;
72929;SDS011;61073;54.260;20.816;2023-09-19T12:07:27;10.07;;;6.05;;
72929;SDS011;61073;54.260;20.816;2023-09-19T12:12:40;8.02;;;5.00;;
72929;SDS011;61073;54.260;20.816;2023-09-19T12:15:14;6.13;;;4.40;;
72929;SDS011;61073;54.260;20.816;2023-09-19T12:17:41;8.93;;;4.90;;
72929;SDS011;61073;54.260;20.816;2023-09-19T12:20:12;5.82;;;3.70;;
72929;SDS011;61073;54.260;20.816;2023-09-19T12:22:44;8.18;;;6.15;;
72929;SDS011;61073;54.260;20.816;2023-09-19T12:25:12;7.05;;;4.70;;
72929;SDS011;61073;54.260;20.816;2023-09-19T12:27:45;5.93;;;4.22;;
72929;SDS011;61073;54.260;20.816;2023-09-19T12:30:19;11.73;;;4.10;;
72929;SDS011;61073;54.260;20.816;2023-09-19T12:32:52;6.32;;;3.95;;
72929;SDS011;61073;54.260;20.816;2023-09-19T12:35:26;7.45;;;3.90;;
72929;SDS011;61073;54.260;20.816;2023-09-19T12:37:54;4.13;;;3.72;;
72929;SDS011;61073;54.260;20.816;2023-09-19T12:40:22;5.18;;;3.80;;
72929;SDS011;61073;54.260;20.816;2023-09-19T12:42:55;5.25;;;3.78;;
72929;SDS011;61073;54.260;20.816;2023-09-19T12:45:24;4.07;;;3.50;;
72929;SDS011;61073;54.260;20.816;2023-09-19T12:50:34;8.52;;;3.42;;
72929;SDS011;61073;54.260;20.816;2023-09-19T12:53:01;3.90;;;3.45;;
72929;SDS011;61073;54.260;20.816;2023-09-19T12:55:29;4.28;;;3.28;;
72929;SDS011;61073;54.260;20.816;2023-09-19T13:00:39;3.53;;;3.03;;
72929;SDS011;61073;54.260;20.816;2023-09-19T13:08:23;4.80;;;3.55;;
72929;SDS011;61073;54.260;20.816;2023-09-19T13:13:33;6.40;;;3.85;;
72929;SDS011;61073;54.260;20.816;2023-09-19T13:16:02;6.65;;;3.28;;
72929;SDS011;61073;54.260;20.816;2023-09-19T13:18:30;5.82;;;3.83;;
72929;SDS011;61073;54.260;20.816;2023-09-19T13:21:05;8.35;;;3.45;;
72929;SDS011;61073;54.260;20.816;2023-09-19T13:23:36;5.80;;;3.78;;
72929;SDS011;61073;54.260;20.816;2023-09-19T13:26:04;4.88;;;3.50;;
72929;SDS011;61073;54.260;20.816;2023-09-19T13:28:33;7.55;;;3.60;;
72929;SDS011;61073;54.260;20.816;2023-09-19T13:31:00;4.70;;;3.55;;
72929;SDS011;61073;54.260;20.816;2023-09-19T13:33:27;4.93;;;3.47;;
72929;SDS011;61073;54.260;20.816;2023-09-19T13:35:55;4.40;;;3.90;;
72929;SDS011;61073;54.260;20.816;2023-09-19T13:38:24;4.80;;;3.47;;
72929;SDS011;61073;54.260;20.816;2023-09-19T13:40:51;5.00;;;3.92;;
72929;SDS011;61073;54.260;20.816;2023-09-19T13:43:18;4.00;;;3.60;;
72929;SDS011;61073;54.260;20.816;2023-09-19T13:45:48;4.45;;;3.20;;
72929;SDS011;61073;54.260;20.816;2023-09-19T13:48:16;5.60;;;2.92;;
72929;SDS011;61073;54.260;20.816;2023-09-19T13:50:48;7.28;;;3.45;;
72929;SDS011;61073;54.260;20.816;2023-09-19T13:53:15;6.03;;;3.17;;
72929;SDS011;61073;54.260;20.816;2023-09-19T13:55:43;5.85;;;3.50;;
72929;SDS011;61073;54.260;20.816;2023-09-19T13:58:10;5.88;;;3.55;;
72929;SDS011;61073;54.260;20.816;2023-09-19T14:00:38;4.55;;;3.28;;
72929;SDS011;61073;54.260;20.816;2023-09-19T14:03:05;7.85;;;3.65;;
72929;SDS011;61073;54.260;20.816;2023-09-19T14:05:32;5.85;;;3.45;;
72929;SDS011;61073;54.260;20.816;2023-09-19T14:07:59;3.50;;;3.17;;
72929;SDS011;61073;54.260;20.816;2023-09-19T14:10:27;4.70;;;3.58;;
72929;SDS011;61073;54.260;20.816;2023-09-19T14:12:54;4.50;;;3.28;;
72929;SDS011;61073;54.260;20.816;2023-09-19T14:15:21;4.70;;;3.00;;
72929;SDS011;61073;54.260;20.816;2023-09-19T14:17:56;4.88;;;3.17;;
72929;SDS011;61073;54.260;20.816;2023-09-19T14:20:23;5.70;;;3.63;;
72929;SDS011;61073;54.260;20.816;2023-09-19T14:22:50;5.75;;;3.08;;
72929;SDS011;61073;54.260;20.816;2023-09-19T14:25:18;4.53;;;3.60;;
72929;SDS011;61073;54.260;20.816;2023-09-19T14:27:46;5.60;;;3.45;;
72929;SDS011;61073;54.260;20.816;2023-09-19T14:30:15;6.72;;;4.38;;
72929;SDS011;61073;54.260;20.816;2023-09-19T14:32:42;3.85;;;3.17;;
72929;SDS011;61073;54.260;20.816;2023-09-19T14:35:09;5.53;;;2.90;;
72929;SDS011;61073;54.260;20.816;2023-09-19T14:37:36;3.67;;;2.90;;
72929;SDS011;61073;54.260;20.816;2023-09-19T14:40:05;5.90;;;3.55;;
72929;SDS011;61073;54.260;20.816;2023-09-19T14:42:35;3.85;;;3.15;;
72929;SDS011;61073;54.260;20.816;2023-09-19T14:45:04;6.22;;;3.45;;
72929;SDS011;61073;54.260;20.816;2023-09-19T14:47:32;6.30;;;3.13;;
72929;SDS011;61073;54.260;20.816;2023-09-19T14:50:03;3.67;;;3.17;;
72929;SDS011;61073;54.260;20.816;2023-09-19T14:52:33;4.50;;;3.08;;
72929;SDS011;61073;54.260;20.816;2023-09-19T14:55:02;5.35;;;3.40;;
72929;SDS011;61073;54.260;20.816;2023-09-19T14:57:30;4.30;;;3.10;;
72929;SDS011;61073;54.260;20.816;2023-09-19T14:59:58;6.97;;;3.00;;
72929;SDS011;61073;54.260;20.816;2023-09-19T15:02:26;4.22;;;3.03;;
72929;SDS011;61073;54.260;20.816;2023-09-19T15:04:54;5.53;;;3.15;;
72929;SDS011;61073;54.260;20.816;2023-09-19T15:07:21;6.95;;;3.15;;
72929;SDS011;61073;54.260;20.816;2023-09-19T15:09:48;6.78;;;2.90;;
72929;SDS011;61073;54.260;20.816;2023-09-19T15:12:15;3.20;;;2.58;;
72929;SDS011;61073;54.260;20.816;2023-09-19T15:14:43;4.97;;;2.65;;
72929;SDS011;61073;54.260;20.816;2023-09-19T15:17:10;3.10;;;2.72;;
72929;SDS011;61073;54.260;20.816;2023-09-19T15:19:38;3.88;;;2.50;;
72929;SDS011;61073;54.260;20.816;2023-09-19T15:22:05;4.05;;;2.50;;
72929;SDS011;61073;54.260;20.816;2023-09-19T15:24:32;5.85;;;2.83;;
72929;SDS011;61073;54.260;20.816;2023-09-19T15:26:59;3.22;;;2.83;;